Terminal Aerodrome Forecast
Issued by NWS

Home | Current Version | Previous Version | Graphics & Text | Print | Product List | Glossary On
Versions: 1 2 3 4 5 6 7 8 9 10 11 12 13 14 15 16 17 18 19 20 21 22 23 24 25 26 27 28 29 30 31 32 33 34 35 36 37 38 39 40 41 42 43 44 45 46 47 48 49 50
307
FTUS43 KLOT 061136
TAFGYY
TAF
KGYY 061136Z 0612/0712 VRB03KT 5SM BR FEW003 SCT006 BKN250
      TEMPO 0612/0615 2SM BR
     FM061600 27005KT 3SM BR SCT003 OVC006
     FM062200 27013G20KT 6SM BR SCT009 BKN020
     FM070000 26012G18KT P6SM FEW030 SCT250=

USA.gov is the U.S. government's official web portal to all federal, state and local government web resources and services.